Time;durP1;ratioP1;P1;durP2;ratioP2;P2;SDS_P1;SDS_P2;PMS_P1;PMS_P2;Temp;Humidity;BMP_temperature;BMP_pressure;BME280_temperature;BME280_humidity;BME280_pressure;Samples;Min_cycle;Max_cycle;Signal;HPM_P1;HPM_P2
2021/08/10 00:00:43;;;;;;;2.63;2.40;;;;;;;21.87;100.00;96713.78;5032481;28;20725;-78
2021/08/10 00:03:10;;;;;;;2.47;2.27;;;;;;;22.33;100.00;96709.06;5032161;28;20654;-78
2021/08/10 00:05:39;;;;;;;2.97;2.77;;;;;;;22.47;100.00;96711.38;5032361;28;20234;-78
2021/08/10 00:08:07;;;;;;;2.40;2.20;;;;;;;22.43;100.00;96707.50;5031936;28;21043;-78
2021/08/10 00:10:34;;;;;;;2.60;2.40;;;;;;;21.83;100.00;96705.38;5032401;28;20195;-78
2021/08/10 00:13:01;;;;;;;2.60;2.50;;;;;;;22.12;100.00;96708.41;5032016;28;20207;-78
2021/08/10 00:15:29;;;;;;;2.53;2.33;;;;;;;22.18;100.00;96706.75;5032166;28;20223;-78
2021/08/10 00:17:56;;;;;;;2.40;2.20;;;;;;;21.95;100.00;96702.78;5032032;28;20633;-78
2021/08/10 00:20:23;;;;;;;2.40;2.30;;;;;;;21.89;100.00;96702.84;5032425;28;20203;-78
2021/08/10 00:22:53;;;;;;;2.60;2.30;;;;;;;22.17;100.00;96702.41;5031942;28;20209;-78
2021/08/10 00:25:20;;;;;;;2.77;2.57;;;;;;;22.23;100.00;96698.84;5032096;28;20199;-78
2021/08/10 00:27:47;;;;;;;2.60;2.40;;;;;;;22.20;100.00;96696.63;5031648;28;20203;-78
2021/08/10 00:30:15;;;;;;;3.53;2.60;;;;;;;22.39;100.00;96705.50;5032034;28;20203;-78
2021/08/10 00:32:42;;;;;;;3.40;2.77;;;;;;;22.13;100.00;96704.69;5031730;28;20241;-78
2021/08/10 00:35:10;;;;;;;5.07;3.17;;;;;;;21.88;100.00;96695.88;5032278;28;20225;-78
2021/08/10 00:37:37;;;;;;;5.37;4.20;;;;;;;21.70;100.00;96704.66;5031450;28;20736;-78
2021/08/10 00:40:08;;;;;;;2.67;2.47;;;;;;;21.75;100.00;96699.47;5031934;28;20194;-78
2021/08/10 00:42:35;;;;;;;3.23;2.93;;;;;;;21.85;100.00;96697.13;5031694;28;20218;-79
2021/08/10 00:45:03;;;;;;;2.37;2.17;;;;;;;22.11;100.00;96700.63;5031402;28;20289;-78
2021/08/10 00:47:30;;;;;;;3.03;2.37;;;;;;;22.18;100.00;96699.53;5031411;28;20691;-79
2021/08/10 00:49:57;;;;;;;2.67;2.47;;;;;;;21.95;100.00;96694.78;5031782;28;20633;-78
2021/08/10 00:52:25;;;;;;;3.00;2.70;;;;;;;21.63;100.00;96687.84;5031389;28;20234;-78
2021/08/10 00:54:52;;;;;;;2.70;2.50;;;;;;;21.60;100.00;96692.59;5031688;28;20236;-78
2021/08/10 00:57:21;;;;;;;2.50;2.30;;;;;;;21.41;100.00;96685.56;5031425;28;20226;-78
2021/08/10 00:59:48;;;;;;;2.43;2.23;;;;;;;21.28;100.00;96683.75;5031814;28;20220;-78
2021/08/10 01:02:17;;;;;;;2.40;2.20;;;;;;;21.26;100.00;96679.66;5031781;28;20672;-79
2021/08/10 01:04:44;;;;;;;2.77;2.57;;;;;;;21.50;100.00;96681.56;5031651;28;20242;-78
2021/08/10 01:07:16;;;;;;;2.50;2.30;;;;;;;21.76;100.00;96685.06;5031396;28;20206;-78
2021/08/10 01:09:51;;;;;;;3.70;2.90;;;;;;;21.83;100.00;96683.16;5031446;28;20187;-78
2021/08/10 01:12:29;;;;;;;3.37;2.30;;;;;;;21.85;100.00;96686.41;5035080;28;20244;-78
2021/08/10 01:15:04;;;;;;;2.90;2.63;;;;;;;21.89;100.00;96681.44;5035634;28;20197;-78
2021/08/10 01:17:36;;;;;;;2.70;2.50;;;;;;;21.60;100.00;96684.56;5035184;28;20635;-78
2021/08/10 01:20:35;;;;;;;3.13;2.93;;;;;;;21.48;100.00;96685.50;5035286;28;20187;-78
2021/08/10 01:23:05;;;;;;;3.23;2.50;;;;;;;21.62;100.00;96680.88;5035269;28;20202;-78
2021/08/10 01:25:44;;;;;;;3.03;2.80;;;;;;;21.74;100.00;96679.94;5035297;28;20241;-79
2021/08/10 01:28:47;;;;;;;2.87;2.67;;;;;;;21.61;100.00;96674.69;5035448;28;20190;-78
2021/08/10 01:31:27;;;;;;;3.30;3.00;;;;;;;21.74;100.00;96674.56;5020100;28;20589;-78
2021/08/10 01:34:01;;;;;;;7.30;2.93;;;;;;;21.78;100.00;96664.25;5035346;28;20190;-79
2021/08/10 01:36:31;;;;;;;2.73;2.53;;;;;;;21.70;100.00;96661.88;5035117;28;20230;-78
2021/08/10 01:39:02;;;;;;;2.90;2.60;;;;;;;21.41;100.00;96666.84;5034853;28;20202;-77
2021/08/10 01:41:31;;;;;;;2.83;2.63;;;;;;;21.56;100.00;96659.31;5034886;28;20226;-78
2021/08/10 01:44:00;;;;;;;2.73;2.53;;;;;;;21.52;100.00;96660.78;5034937;28;20244;-78
2021/08/10 01:46:31;;;;;;;2.97;2.67;;;;;;;21.51;100.00;96659.16;5034919;28;20293;-78
2021/08/10 01:48:59;;;;;;;2.77;2.57;;;;;;;21.49;100.00;96661.22;5034848;28;20227;-79
2021/08/10 01:51:30;;;;;;;3.03;2.57;;;;;;;21.62;100.00;96652.28;5034400;28;20191;-78
2021/08/10 01:54:01;;;;;;;3.77;3.10;;;;;;;21.36;100.00;96650.63;5034805;28;20635;-78
2021/08/10 01:56:29;;;;;;;3.57;2.90;;;;;;;21.17;100.00;96644.34;5034725;28;20246;-78
2021/08/10 01:58:59;;;;;;;2.80;2.60;;;;;;;21.05;100.00;96644.22;5034948;28;20249;-78
2021/08/10 02:01:29;;;;;;;2.97;2.77;;;;;;;20.81;100.00;96644.97;5034464;28;20198;-79
2021/08/10 02:03:57;;;;;;;6.30;2.50;;;;;;;20.84;100.00;96647.22;5034496;28;20640;-78
2021/08/10 02:06:26;;;;;;;3.00;2.80;;;;;;;21.01;100.00;96645.69;5034618;28;20244;-78
2021/08/10 02:08:56;;;;;;;3.00;2.80;;;;;;;21.03;100.00;96640.94;5034450;28;20272;-78
2021/08/10 02:11:25;;;;;;;3.27;3.07;;;;;;;21.15;100.00;96635.72;5034473;28;20203;-78
2021/08/10 02:13:54;;;;;;;2.63;2.43;;;;;;;21.11;100.00;96637.19;5034581;28;20230;-78
2021/08/10 02:16:23;;;;;;;3.47;2.67;;;;;;;21.02;100.00;96639.28;5034436;28;20328;-78
2021/08/10 02:18:53;;;;;;;3.03;2.83;;;;;;;21.27;100.00;96641.22;5034185;28;20289;-78
2021/08/10 02:21:32;;;;;;;5.60;2.57;;;;;;;21.26;100.00;96634.19;5033893;28;20291;-78
2021/08/10 02:24:04;;;;;;;3.23;3.00;;;;;;;21.40;100.00;96635.78;5033299;28;20281;-78
2021/08/10 02:26:35;;;;;;;3.57;3.27;;;;;;;21.42;100.00;96638.25;5034307;28;20183;-78
2021/08/10 02:29:03;;;;;;;3.43;2.67;;;;;;;21.34;100.00;96632.13;5034351;28;20209;-78
2021/08/10 02:31:31;;;;;;;3.80;2.47;;;;;;;21.28;100.00;96638.31;5030456;28;20228;-79
2021/08/10 02:34:01;;;;;;;2.77;2.57;;;;;;;21.24;100.00;96636.28;5033694;28;20198;-79
2021/08/10 02:36:31;;;;;;;4.20;2.70;;;;;;;21.19;100.00;96647.63;5034129;28;20203;-79
2021/08/10 02:39:06;;;;;;;2.97;2.70;;;;;;;21.13;100.00;96646.63;5033819;28;20202;-79
2021/08/10 02:41:34;;;;;;;2.83;2.63;;;;;;;21.17;100.00;96655.03;5033740;28;20187;-78
2021/08/10 02:44:02;;;;;;;2.33;2.17;;;;;;;21.24;100.00;96657.69;5033458;28;20237;-78
2021/08/10 02:46:30;;;;;;;5.20;2.70;;;;;;;21.33;100.00;96656.34;5033757;28;20281;-79
2021/08/10 02:48:59;;;;;;;2.57;2.37;;;;;;;21.35;100.00;96657.00;5033602;28;20210;-78
2021/08/10 02:51:27;;;;;;;3.77;2.90;;;;;;;21.22;100.00;96657.88;5033517;28;20199;-78
2021/08/10 02:53:54;;;;;;;5.13;3.00;;;;;;;21.08;100.00;96657.16;5033522;28;20233;-79
2021/08/10 02:56:25;;;;;;;3.10;2.90;;;;;;;20.89;100.00;96652.75;5032682;28;20226;-79
2021/08/10 02:58:59;;;;;;;3.60;3.30;;;;;;;20.91;100.00;96656.00;5033169;28;20671;-79
2021/08/10 03:01:31;;;;;;;3.50;3.07;;;;;;;20.90;100.00;96662.41;5033723;28;20225;-80
2021/08/10 03:04:01;;;;;;;14.33;4.40;;;;;;;20.97;100.00;96663.19;5033378;28;20660;-79
2021/08/10 03:06:31;;;;;;;3.73;3.30;;;;;;;20.72;100.00;96663.13;5033847;28;20205;-79
2021/08/10 03:09:02;;;;;;;4.03;3.17;;;;;;;20.58;100.00;96670.38;5033339;28;20191;-79
2021/08/10 03:11:33;;;;;;;4.97;3.27;;;;;;;20.49;100.00;96662.75;5033295;28;20226;-79
2021/08/10 03:14:02;;;;;;;3.40;3.10;;;;;;;20.59;100.00;96668.50;5033179;28;20227;-79
2021/08/10 03:16:32;;;;;;;9.63;3.50;;;;;;;20.76;100.00;96672.34;5033332;28;20226;-79
2021/08/10 03:19:04;;;;;;;8.27;3.80;;;;;;;20.78;100.00;96672.94;5032880;28;20230;-78
2021/08/10 03:21:33;;;;;;;9.67;3.70;;;;;;;20.82;100.00;96670.69;5033089;28;20187;-78
2021/08/10 03:24:03;;;;;;;3.73;3.43;;;;;;;21.01;100.00;96671.59;5032903;28;20241;-78
2021/08/10 03:26:32;;;;;;;3.57;3.27;;;;;;;20.70;100.00;96672.38;5032934;28;20738;-78
2021/08/10 03:29:01;;;;;;;3.67;3.37;;;;;;;20.60;100.00;96673.63;5032754;28;20289;-78
2021/08/10 03:31:29;;;;;;;6.30;3.93;;;;;;;20.81;100.00;96674.34;5032314;28;20294;-78
2021/08/10 03:33:57;;;;;;;4.13;3.37;;;;;;;20.77;100.00;96671.28;5032257;28;20203;-78
2021/08/10 03:36:27;;;;;;;4.43;3.07;;;;;;;20.79;100.00;96665.75;5032863;28;20298;-78
2021/08/10 03:38:56;;;;;;;6.77;3.53;;;;;;;20.72;100.00;96664.97;5032525;28;20210;-78
2021/08/10 03:41:26;;;;;;;4.77;3.53;;;;;;;20.88;100.00;96665.28;5032492;28;20678;-78
2021/08/10 03:43:55;;;;;;;4.30;3.90;;;;;;;20.83;100.00;96664.28;5032438;28;20187;-78
2021/08/10 03:46:22;;;;;;;7.57;3.53;;;;;;;20.88;100.00;96665.28;5032651;28;20261;-78
2021/08/10 03:48:50;;;;;;;3.50;3.20;;;;;;;20.83;100.00;96665.09;5032657;28;20232;-78
2021/08/10 03:51:18;;;;;;;4.43;3.47;;;;;;;20.74;100.00;96662.88;5032093;28;20198;-78
2021/08/10 03:53:47;;;;;;;5.53;3.50;;;;;;;20.78;100.00;96664.94;5032320;28;20758;-78
2021/08/10 03:56:17;;;;;;;3.57;3.20;;;;;;;20.60;100.00;96665.59;5032630;28;20656;-79
2021/08/10 03:58:48;;;;;;;3.73;3.43;;;;;;;20.69;100.00;96670.72;5032987;28;20198;-79
2021/08/10 04:01:18;;;;;;;3.80;3.50;;;;;;;20.59;100.00;96663.97;5032522;28;20191;-80
2021/08/10 04:03:46;;;;;;;6.77;4.30;;;;;;;20.79;100.00;96668.44;5032229;28;20198;-80
2021/08/10 04:06:14;;;;;;;4.83;4.20;;;;;;;20.70;100.00;96669.69;5032664;28;20198;-79
2021/08/10 04:08:42;;;;;;;4.37;3.97;;;;;;;20.63;100.00;96672.38;5032249;28;20198;-78
2021/08/10 04:11:11;;;;;;;4.20;3.90;;;;;;;20.53;100.00;96672.00;5032279;28;20230;-78
2021/08/10 04:13:39;;;;;;;5.70;4.10;;;;;;;20.61;100.00;96658.44;5032183;28;20202;-78
2021/08/10 04:16:08;;;;;;;4.10;3.70;;;;;;;20.71;100.00;96660.63;5032144;28;20198;-78
2021/08/10 04:18:37;;;;;;;4.87;4.10;;;;;;;20.63;100.00;96651.84;5031917;28;20719;-80
2021/08/10 04:21:04;;;;;;;11.67;4.63;;;;;;;20.64;100.00;96642.81;5032163;28;20190;-78
2021/08/10 04:23:33;;;;;;;7.27;4.30;;;;;;;20.79;100.00;96650.53;5031763;28;20203;-77
2021/08/10 04:26:01;;;;;;;4.03;3.73;;;;;;;20.85;100.00;96659.53;5032155;28;20672;-79
2021/08/10 04:28:29;;;;;;;5.63;4.20;;;;;;;20.71;100.00;96666.78;5031750;28;20241;-78
2021/08/10 04:30:56;;;;;;;5.13;4.03;;;;;;;20.46;100.00;96672.00;5032343;28;20591;-77
2021/08/10 04:33:24;;;;;;;4.73;4.03;;;;;;;20.55;100.00;96669.97;5031564;28;20733;-77
2021/08/10 04:35:51;;;;;;;5.03;4.43;;;;;;;20.52;100.00;96665.84;5032318;28;20203;-77
2021/08/10 04:38:18;;;;;;;5.67;4.83;;;;;;;20.56;100.00;96667.06;5031507;28;20226;-77
2021/08/10 04:40:46;;;;;;;8.00;4.77;;;;;;;20.71;100.00;96664.13;5031674;28;20241;-77
2021/08/10 04:43:13;;;;;;;9.97;5.30;;;;;;;20.78;100.00;96666.75;5031925;28;20269;-77
2021/08/10 04:45:42;;;;;;;10.30;4.70;;;;;;;20.75;100.00;96673.38;5031065;28;20208;-77
2021/08/10 04:48:09;;;;;;;7.67;5.27;;;;;;;20.91;100.00;96664.03;5031494;28;20194;-77
2021/08/10 04:50:36;;;;;;;9.60;5.87;;;;;;;21.05;100.00;96665.59;5031806;28;20230;-77
2021/08/10 04:53:04;;;;;;;5.50;5.00;;;;;;;21.09;100.00;96671.31;5031429;28;20246;-77
2021/08/10 04:55:31;;;;;;;7.27;5.33;;;;;;;21.24;100.00;96671.84;5031865;28;20260;-77
2021/08/10 04:57:59;;;;;;;6.20;4.83;;;;;;;21.42;100.00;96665.78;5031397;28;20268;-77
2021/08/10 05:00:29;;;;;;;6.50;4.67;;;;;;;21.41;100.00;96672.19;5031761;28;20194;-77
2021/08/10 05:02:57;;;;;;;8.13;4.80;;;;;;;21.45;100.00;96669.91;5031223;28;20198;-77
2021/08/10 05:05:25;;;;;;;13.37;5.03;;;;;;;21.43;100.00;96678.13;5031716;28;20191;-77
2021/08/10 05:07:52;;;;;;;5.80;4.33;;;;;;;21.43;100.00;96672.78;5031491;28;20198;-77
2021/08/10 05:10:19;;;;;;;7.57;4.43;;;;;;;21.25;100.00;96678.84;5031691;28;20242;-77
2021/08/10 05:12:46;;;;;;;4.63;3.87;;;;;;;21.25;100.00;96680.69;5031158;28;20260;-77
2021/08/10 05:15:14;;;;;;;7.03;5.30;;;;;;;21.45;100.00;96685.94;5031581;28;20234;-77
2021/08/10 05:17:41;;;;;;;7.17;5.63;;;;;;;21.64;100.00;96690.31;5031667;28;20283;-77
2021/08/10 05:20:12;;;;;;;15.70;6.33;;;;;;;21.83;100.00;96696.53;5031448;28;20237;-77
2021/08/10 05:22:41;;;;;;;8.60;5.97;;;;;;;21.94;100.00;96695.81;5031396;28;20275;-77
2021/08/10 05:25:08;;;;;;;12.70;6.03;;;;;;;22.04;100.00;96695.31;5031257;28;20213;-77
2021/08/10 05:27:36;;;;;;;6.13;5.53;;;;;;;22.21;100.00;96699.09;5031344;28;20195;-77
2021/08/10 05:30:03;;;;;;;13.07;6.60;;;;;;;22.38;100.00;96702.00;5031477;28;20230;-77
2021/08/10 05:32:31;;;;;;;5.83;5.33;;;;;;;22.58;100.00;96709.00;5031514;28;20227;-76
2021/08/10 05:34:58;;;;;;;6.73;5.40;;;;;;;22.76;100.00;96717.03;5031547;28;20235;-76
2021/08/10 05:37:27;;;;;;;13.00;5.10;;;;;;;22.89;100.00;96722.22;5031415;28;20265;-76
2021/08/10 05:39:54;;;;;;;15.07;5.77;;;;;;;23.06;100.00;96714.41;5031349;28;20249;-76
2021/08/10 05:42:21;;;;;;;12.13;5.10;;;;;;;23.32;100.00;96718.59;5031221;28;20198;-76
2021/08/10 05:44:48;;;;;;;10.80;4.50;;;;;;;23.58;100.00;96716.56;5031089;28;20230;-77
2021/08/10 05:47:16;;;;;;;7.13;4.63;;;;;;;23.70;100.00;96704.84;5031405;28;20195;-78
2021/08/10 05:49:43;;;;;;;7.77;4.50;;;;;;;23.87;100.00;96704.97;5031279;28;20191;-78
2021/08/10 05:52:10;;;;;;;6.77;5.77;;;;;;;24.10;100.00;96712.22;5031023;28;20234;-77
2021/08/10 05:54:39;;;;;;;11.17;6.03;;;;;;;24.32;100.00;96707.09;5031576;28;20256;-77
2021/08/10 05:57:06;;;;;;;8.43;5.30;;;;;;;24.51;100.00;96705.09;5032316;28;20203;-78
2021/08/10 05:59:34;;;;;;;9.77;4.57;;;;;;;24.53;100.00;96700.31;5034810;28;20679;-77
2021/08/10 06:02:02;;;;;;;4.43;4.13;;;;;;;24.38;100.00;96711.50;5034523;28;20198;-77
2021/08/10 06:04:29;;;;;;;3.93;3.53;;;;;;;24.38;100.00;96721.44;5034687;28;20667;-77
2021/08/10 06:06:57;;;;;;;8.17;5.40;;;;;;;24.39;100.00;96729.25;5034490;28;20198;-78
2021/08/10 06:09:24;;;;;;;5.40;4.90;;;;;;;24.40;100.00;96720.19;5034927;28;20222;-77
2021/08/10 06:11:53;;;;;;;5.10;4.70;;;;;;;24.51;100.00;96717.72;5034444;28;20237;-78
2021/08/10 06:14:20;;;;;;;4.57;4.17;;;;;;;24.60;100.00;96706.38;5034835;28;20353;-77
2021/08/10 06:16:47;;;;;;;4.73;4.33;;;;;;;24.62;100.00;96711.50;5033982;28;20234;-78
2021/08/10 06:19:14;;;;;;;5.90;4.60;;;;;;;24.70;100.00;96705.78;5034652;28;20284;-78
2021/08/10 06:21:42;;;;;;;5.67;4.47;;;;;;;24.78;100.00;96712.63;5034525;28;20277;-79
2021/08/10 06:24:09;;;;;;;6.00;4.17;;;;;;;24.71;100.00;96720.03;5034338;28;20238;-79
2021/08/10 06:26:36;;;;;;;4.80;4.33;;;;;;;24.70;100.00;96716.53;5034146;28;20194;-78
2021/08/10 06:29:05;;;;;;;5.40;4.50;;;;;;;24.72;100.00;96713.59;5034152;28;20290;-78
2021/08/10 06:31:32;;;;;;;9.40;5.13;;;;;;;24.75;100.00;96719.31;5034132;28;20256;-78
2021/08/10 06:34:00;;;;;;;7.93;5.73;;;;;;;24.76;100.00;96712.88;5033760;28;20237;-78
2021/08/10 06:36:27;;;;;;;4.87;4.47;;;;;;;25.01;100.00;96723.34;5034103;28;20195;-78
2021/08/10 06:38:54;;;;;;;6.13;5.53;;;;;;;25.22;100.00;96713.00;5033765;28;20273;-78
2021/08/10 06:41:21;;;;;;;7.17;5.77;;;;;;;25.40;100.00;96706.59;5033760;28;20202;-78
2021/08/10 06:43:49;;;;;;;11.10;4.87;;;;;;;25.34;100.00;96701.09;5033750;28;20238;-78
2021/08/10 06:46:17;;;;;;;7.93;4.83;;;;;;;25.53;100.00;96704.41;5033969;28;20257;-78
2021/08/10 06:48:45;;;;;;;5.27;4.70;;;;;;;25.52;100.00;96718.09;5033946;28;20206;-78
2021/08/10 06:51:13;;;;;;;4.97;4.47;;;;;;;25.45;100.00;96720.94;5033762;28;20289;-78
2021/08/10 06:53:40;;;;;;;7.63;4.23;;;;;;;25.62;100.00;96710.19;5033324;28;20234;-79
2021/08/10 06:56:07;;;;;;;8.40;5.20;;;;;;;25.52;100.00;96708.13;5034035;28;20230;-79
2021/08/10 06:58:35;;;;;;;7.27;4.80;;;;;;;25.58;100.00;96693.72;5033758;28;20304;-79
2021/08/10 07:01:02;;;;;;;8.13;5.10;;;;;;;25.88;100.00;96689.13;5033420;28;20206;-79
2021/08/10 07:03:31;;;;;;;9.53;4.67;;;;;;;25.88;100.00;96694.50;5033447;28;20199;-78
2021/08/10 07:05:58;;;;;;;6.27;4.83;;;;;;;25.65;100.00;96677.41;5033489;28;20248;-78
2021/08/10 07:08:25;;;;;;;5.33;4.87;;;;;;;25.47;100.00;96667.69;5032541;28;20195;-78
2021/08/10 07:10:52;;;;;;;6.67;5.20;;;;;;;25.36;100.00;96661.34;5033434;28;20260;-79
2021/08/10 07:13:20;;;;;;;6.82;5.13;;;;;;;25.34;100.00;96660.75;5033307;28;20621;-79
2021/08/10 07:15:47;;;;;;;5.13;4.60;;;;;;;25.33;100.00;96661.81;5033623;28;20230;-79
2021/08/10 07:18:14;;;;;;;7.32;4.88;;;;;;;25.35;100.00;96651.59;5033067;28;20230;-79
2021/08/10 07:20:43;;;;;;;15.90;6.27;;;;;;;25.40;100.00;96645.50;5033004;28;20230;-78
2021/08/10 07:23:10;;;;;;;11.53;5.17;;;;;;;25.46;100.00;96641.84;5033008;28;20237;-79
2021/08/10 07:25:37;;;;;;;6.00;5.50;;;;;;;25.50;100.00;96647.56;5033451;28;20199;-78
2021/08/10 07:28:05;;;;;;;5.77;5.13;;;;;;;25.54;100.00;96646.00;5032609;28;20202;-79
2021/08/10 07:30:33;;;;;;;7.77;5.20;;;;;;;25.56;100.00;96651.94;5033129;28;20199;-79
2021/08/10 07:33:00;;;;;;;7.97;5.03;;;;;;;25.63;100.00;96663.38;5032771;28;20237;-79
2021/08/10 07:35:27;;;;;;;7.28;5.30;;;;;;;25.63;100.00;96666.06;5026045;28;20303;-79
2021/08/10 07:38:00;;;;;;;10.63;5.15;;;;;;;25.68;100.00;96670.72;5012524;28;20230;-79
2021/08/10 07:40:28;;;;;;;6.65;5.32;;;;;;;25.72;100.00;96679.94;5013262;28;20255;-79
2021/08/10 07:42:55;;;;;;;7.80;5.00;;;;;;;25.95;100.00;96670.91;5012683;28;20294;-78
2021/08/10 07:45:23;;;;;;;5.07;4.35;;;;;;;26.12;100.00;96673.56;5013171;28;20199;-77
2021/08/10 07:47:50;;;;;;;16.52;5.95;;;;;;;26.61;100.00;96679.94;5012195;28;20239;-78
2021/08/10 07:50:18;;;;;;;5.72;4.88;;;;;;;26.99;100.00;96681.75;5012840;28;20283;-77
2021/08/10 07:52:47;;;;;;;8.23;5.30;;;;;;;27.17;100.00;96672.50;5012390;28;20284;-77
2021/08/10 07:55:16;;;;;;;5.97;4.68;;;;;;;27.66;100.00;96685.13;5012660;28;20242;-77
2021/08/10 07:57:43;;;;;;;10.90;4.90;;;;;;;28.32;100.00;96693.72;5011633;28;20295;-78
2021/08/10 08:00:12;;;;;;;8.65;4.80;;;;;;;28.59;100.00;96695.53;5012724;28;20231;-78
2021/08/10 08:02:39;;;;;;;10.25;5.10;;;;;;;29.20;100.00;96708.47;5012420;28;20672;-78
2021/08/10 08:05:07;;;;;;;5.50;4.82;;;;;;;29.34;100.00;96710.44;5012819;28;20207;-78
2021/08/10 08:07:35;;;;;;;5.45;4.88;;;;;;;29.00;100.00;96701.94;5012391;28;20281;-77
2021/08/10 08:10:02;;;;;;;9.35;5.68;;;;;;;29.65;100.00;96696.97;5012322;28;20231;-78
2021/08/10 08:12:31;;;;;;;9.77;5.57;;;;;;;30.39;100.00;96697.47;5012185;28;20239;-78
2021/08/10 08:14:58;;;;;;;5.88;5.05;;;;;;;30.32;100.00;96704.00;5012549;28;20203;-78
2021/08/10 08:17:25;;;;;;;7.13;5.03;;;;;;;30.03;100.00;96703.75;5012112;28;20353;-78
2021/08/10 08:19:52;;;;;;;6.00;5.07;;;;;;;29.25;100.00;96703.91;5015604;28;20254;-78
2021/08/10 08:22:19;;;;;;;6.30;4.70;;;;;;;29.25;100.00;96701.19;5031809;28;20199;-78
2021/08/10 08:24:47;;;;;;;7.00;4.63;;;;;;;29.34;100.00;96706.91;5031782;28;20643;-78
2021/08/10 08:27:14;;;;;;;6.60;4.60;;;;;;;29.79;100.00;96706.19;5031724;28;20245;-78
2021/08/10 08:29:43;;;;;;;6.15;4.43;;;;;;;30.02;100.00;96702.09;5031653;28;20725;-78
2021/08/10 08:32:10;;;;;;;6.82;4.63;;;;;;;29.94;100.00;96694.53;5031682;28;20209;-79
2021/08/10 08:34:37;;;;;;;4.07;3.78;;;;;;;29.93;100.00;96694.78;5031824;28;20249;-78
2021/08/10 08:37:05;;;;;;;5.28;4.88;;;;;;;30.18;100.00;96688.56;5031419;28;20675;-78
2021/08/10 08:39:33;;;;;;;4.38;3.97;;;;;;;30.00;100.00;96698.88;5031509;28;20222;-78
2021/08/10 08:42:01;;;;;;;5.60;4.53;;;;;;;29.61;100.00;96693.97;5031603;28;20229;-78
2021/08/10 08:44:34;;;;;;;7.20;4.10;;;;;;;29.97;100.00;96690.47;5031733;28;20237;-78
2021/08/10 08:47:03;;;;;;;5.85;5.13;;;;;;;30.07;100.00;96685.03;5031401;28;20193;-78
2021/08/10 08:49:32;;;;;;;9.55;4.78;;;;;;;29.87;100.00;96683.16;5031742;28;20234;-78
2021/08/10 08:52:01;;;;;;;5.38;4.88;;;;;;;30.02;100.00;96668.75;5031632;28;20257;-78
2021/08/10 08:54:30;;;;;;;5.20;4.70;;;;;;;31.00;100.00;96680.97;5032165;28;20202;-78
2021/08/10 08:56:57;;;;;;;6.22;4.30;;;;;;;31.58;100.00;96669.53;5031531;28;20256;-79
2021/08/10 08:59:25;;;;;;;11.18;5.30;;;;;;;32.05;100.00;96674.31;5031686;28;20264;-79
2021/08/10 09:01:53;;;;;;;4.97;3.97;;;;;;;32.30;100.00;96672.44;5031886;28;20206;-78
2021/08/10 09:04:22;;;;;;;5.57;4.28;;;;;;;32.36;100.00;96663.94;5032026;28;20675;-78
2021/08/10 09:06:49;;;;;;;7.45;4.47;;;;;;;32.32;100.00;96671.06;5031543;28;20237;-78
2021/08/10 09:09:22;;;;;;;5.40;4.65;;;;;;;32.69;100.00;96666.84;5031364;28;20719;-78
2021/08/10 09:11:51;;;;;;;5.43;4.63;;;;;;;32.50;100.00;96669.53;5031779;28;20253;-78
2021/08/10 09:14:18;;;;;;;5.13;4.72;;;;;;;32.52;100.00;96669.25;5031830;28;20201;-78
2021/08/10 09:17:04;;;;;;;7.60;4.35;;;;;;;32.82;100.00;96660.72;5031459;28;20260;-78
2021/08/10 09:19:44;;;;;;;4.63;3.42;;;;;;;32.57;100.00;96661.03;5031605;28;20242;-78
2021/08/10 09:22:18;;;;;;;5.28;4.53;;;;;;;32.51;100.00;96662.19;5031472;28;20249;-78
2021/08/10 09:24:47;;;;;;;5.70;4.85;;;;;;;32.66;100.00;96657.38;5031317;28;20190;-79
2021/08/10 09:27:34;;;;;;;5.93;5.32;;;;;;;33.02;100.00;96667.84;5031224;28;20264;-78
2021/08/10 09:30:02;;;;;;;5.68;4.57;;;;;;;33.17;100.00;96666.00;5030386;28;20183;-78
2021/08/10 09:32:30;;;;;;;21.40;15.82;;;;;;;33.25;100.00;96663.41;5030920;28;20280;-79
2021/08/10 09:35:16;;;;;;;25.58;18.42;;;;;;;33.23;100.00;96652.03;5035077;28;20229;-79
2021/08/10 09:37:43;;;;;;;23.15;15.55;;;;;;;33.59;100.00;96655.03;5034984;28;20665;-79
2021/08/10 09:40:29;;;;;;;4.97;4.57;;;;;;;33.70;100.00;96652.94;5034840;28;20226;-79
2021/08/10 09:43:25;;;;;;;4.28;3.92;;;;;;;33.64;100.00;96653.34;5033974;28;20237;-79
2021/08/10 09:46:06;;;;;;;5.35;4.85;;;;;;;33.28;100.00;96646.47;5035272;28;20214;-78
2021/08/10 09:48:34;;;;;;;4.63;4.22;;;;;;;33.17;100.00;96655.91;5034585;28;20189;-79
2021/08/10 09:51:12;;;;;;;4.93;4.38;;;;;;;33.32;100.00;96644.81;5034554;28;20238;-79
2021/08/10 09:53:40;;;;;;;4.47;4.10;;;;;;;33.71;100.00;96638.22;5033366;28;20269;-79
2021/08/10 09:56:07;;;;;;;5.45;4.82;;;;;;;33.64;100.00;96640.53;5034619;28;20202;-79
2021/08/10 09:58:58;;;;;;;3.95;3.65;;;;;;;33.99;100.00;96641.81;5034162;28;20257;-79
2021/08/10 10:01:33;;;;;;;4.47;4.07;;;;;;;33.98;100.00;96642.09;5034338;28;20232;-79
2021/08/10 10:04:15;;;;;;;5.35;4.85;;;;;;;34.01;100.00;96644.28;5034636;28;20633;-80
2021/08/10 10:06:44;;;;;;;5.35;4.75;;;;;;;34.20;100.00;96647.75;5034521;28;20233;-80
2021/08/10 10:09:12;;;;;;;5.47;4.93;;;;;;;34.29;100.00;96639.66;5034402;28;20231;-80
2021/08/10 10:11:41;;;;;;;4.22;3.92;;;;;;;33.95;100.00;96637.28;5034249;28;20195;-79
2021/08/10 10:14:09;;;;;;;4.72;4.07;;;;;;;33.44;100.00;96641.63;5034094;28;20643;-80
2021/08/10 10:16:39;;;;;;;5.03;4.70;;;;;;;33.29;100.00;96639.94;5034445;28;20276;-79
2021/08/10 10:19:10;;;;;;;6.65;5.32;;;;;;;33.18;100.00;96646.63;5034040;28;20225;-78
2021/08/10 10:21:38;;;;;;;5.28;4.80;;;;;;;33.22;100.00;96636.78;5034027;28;20578;-79
2021/08/10 10:24:09;;;;;;;6.30;4.95;;;;;;;33.44;100.00;96635.38;5034091;28;20234;-79
2021/08/10 10:26:40;;;;;;;4.90;4.43;;;;;;;33.51;100.00;96633.09;5034250;28;20225;-78
2021/08/10 10:29:09;;;;;;;4.75;4.45;;;;;;;33.61;100.00;96632.94;5033509;28;20572;-79
2021/08/10 10:31:37;;;;;;;5.22;4.82;;;;;;;33.58;100.00;96628.09;5034054;28;20203;-79
2021/08/10 10:34:05;;;;;;;4.25;3.78;;;;;;;33.98;100.00;96639.38;5034207;28;20198;-78
2021/08/10 10:36:35;;;;;;;5.70;4.90;;;;;;;34.29;100.00;96626.00;5033717;28;20289;-78
2021/08/10 10:39:03;;;;;;;5.60;4.20;;;;;;;34.16;100.00;96624.13;5033399;28;20261;-79
2021/08/10 10:41:34;;;;;;;6.00;4.38;;;;;;;34.07;100.00;96618.53;5033980;28;20285;-78
2021/08/10 10:44:02;;;;;;;6.38;5.28;;;;;;;34.28;100.00;96625.22;5032607;28;20544;-78
2021/08/10 10:46:32;;;;;;;5.15;4.70;;;;;;;34.25;100.00;96625.00;5033559;28;20203;-79
2021/08/10 10:49:00;;;;;;;5.07;4.57;;;;;;;34.43;100.00;96617.84;5033527;28;20221;-79
2021/08/10 10:51:30;;;;;;;4.88;4.47;;;;;;;34.60;100.00;96620.78;5033714;28;20256;-78
2021/08/10 10:54:27;;;;;;;4.90;4.43;;;;;;;34.73;100.00;96619.97;5033372;28;20677;-79
2021/08/10 10:56:57;;;;;;;5.22;4.82;;;;;;;34.63;100.00;96619.38;5033358;28;20186;-79
2021/08/10 10:59:36;;;;;;;4.45;4.00;;;;;;;34.42;100.00;96617.03;5033240;28;20268;-79
2021/08/10 11:02:21;;;;;;;6.18;4.88;;;;;;;34.31;100.00;96615.63;5033299;28;20233;-78
2021/08/10 11:05:26;;;;;;;5.97;5.03;;;;;;;34.15;100.00;96617.81;5033082;28;20195;-79
2021/08/10 11:07:54;;;;;;;5.60;4.88;;;;;;;34.38;100.00;96609.75;5003960;28;20198;-79
2021/08/10 11:10:43;;;;;;;4.70;4.30;;;;;;;34.57;100.00;96609.66;5033177;28;20206;-79
2021/08/10 11:13:41;;;;;;;5.53;4.97;;;;;;;34.79;100.00;96596.91;5032852;28;20733;-79
2021/08/10 11:16:10;;;;;;;7.35;5.13;;;;;;;34.67;100.00;96599.34;4933220;29;20286;-79
2021/08/10 11:18:38;;;;;;;5.28;4.88;;;;;;;34.78;100.00;96592.56;5010633;28;20199;-79
2021/08/10 11:21:25;;;;;;;6.45;4.97;;;;;;;34.77;100.00;96588.22;5032365;28;20241;-79
2021/08/10 11:23:53;;;;;;;5.28;4.78;;;;;;;34.35;100.00;96594.00;5033265;28;20648;-79
2021/08/10 11:26:39;;;;;;;6.38;5.43;;;;;;;34.50;100.00;96593.69;5032760;28;20289;-79
2021/08/10 11:29:10;;;;;;;7.13;4.97;;;;;;;34.60;100.00;96592.69;5032789;28;20272;-79
2021/08/10 11:31:51;;;;;;;5.90;5.10;;;;;;;34.87;100.00;96589.09;5032739;28;20256;-79
2021/08/10 11:34:38;;;;;;;5.00;4.60;;;;;;;34.89;100.00;96579.50;5033231;28;20344;-79
2021/08/10 11:37:26;;;;;;;6.45;4.70;;;;;;;34.79;100.00;96590.66;5032344;28;20261;-79